sensor_id;sensor_type;location;lat;lon;timestamp;pressure;altitude;pressure_sealevel;temperature;humidity
40155;BME280;25875;48.202;16.334;2022-11-14T00:00:47;99928.34;;;5.58;79.62
40155;BME280;25875;48.202;16.334;2022-11-14T00:03:13;100036.03;;;6.63;79.61
40155;BME280;25875;48.202;16.334;2022-11-14T00:05:43;100030.75;;;6.63;79.57
40155;BME280;25875;48.202;16.334;2022-11-14T00:08:14;100033.41;;;6.63;79.62
40155;BME280;25875;48.202;16.334;2022-11-14T00:10:41;100027.28;;;6.63;79.40
40155;BME280;25875;48.202;16.334;2022-11-14T00:13:08;100026.50;;;6.59;79.20
40155;BME280;25875;48.202;16.334;2022-11-14T00:15:34;100028.31;;;6.57;79.28
40155;BME280;25875;48.202;16.334;2022-11-14T00:18:01;100029.22;;;6.56;79.24
40155;BME280;25875;48.202;16.334;2022-11-14T00:20:28;100028.44;;;6.53;79.22
40155;BME280;25875;48.202;16.334;2022-11-14T00:22:56;100026.72;;;6.52;79.39
40155;BME280;25875;48.202;16.334;2022-11-14T00:25:23;100014.44;;;6.51;79.21
40155;BME280;25875;48.202;16.334;2022-11-14T00:27:50;100030.34;;;6.48;79.30
40155;BME280;25875;48.202;16.334;2022-11-14T00:30:16;100028.56;;;6.48;79.35
40155;BME280;25875;48.202;16.334;2022-11-14T00:32:43;100029.47;;;6.47;79.31
40155;BME280;25875;48.202;16.334;2022-11-14T00:35:10;100006.09;;;6.35;79.26
40155;BME280;25875;48.202;16.334;2022-11-14T00:37:37;100018.16;;;6.43;79.34
40155;BME280;25875;48.202;16.334;2022-11-14T00:40:06;100021.69;;;6.42;79.48
40155;BME280;25875;48.202;16.334;2022-11-14T00:42:33;99981.84;;;6.24;79.52
40155;BME280;25875;48.202;16.334;2022-11-14T00:45:00;100025.09;;;6.46;79.43
40155;BME280;25875;48.202;16.334;2022-11-14T00:47:26;100023.34;;;6.47;79.36
40155;BME280;25875;48.202;16.334;2022-11-14T00:49:53;100025.94;;;6.48;79.33
40155;BME280;25875;48.202;16.334;2022-11-14T00:52:20;100025.94;;;6.48;79.40
40155;BME280;25875;48.202;16.334;2022-11-14T00:54:46;100023.28;;;6.48;79.59
40155;BME280;25875;48.202;16.334;2022-11-14T00:57:14;100022.38;;;6.49;79.64
40155;BME280;25875;48.202;16.334;2022-11-14T00:59:41;100030.25;;;6.51;79.50
40155;BME280;25875;48.202;16.334;2022-11-14T01:02:08;100031.09;;;6.51;79.77
40155;BME280;25875;48.202;16.334;2022-11-14T01:04:34;100033.69;;;6.53;79.51
40155;BME280;25875;48.202;16.334;2022-11-14T01:07:01;100030.19;;;6.52;79.81
40155;BME280;25875;48.202;16.334;2022-11-14T01:09:28;100024.94;;;6.52;79.77
40155;BME280;25875;48.202;16.334;2022-11-14T01:11:55;99668.53;;;4.45;79.26
40155;BME280;25875;48.202;16.334;2022-11-14T01:14:23;100004.88;;;6.48;79.71
40155;BME280;25875;48.202;16.334;2022-11-14T01:16:49;99964.97;;;6.31;79.72
40155;BME280;25875;48.202;16.334;2022-11-14T01:19:16;100009.09;;;6.54;79.84
40155;BME280;25875;48.202;16.334;2022-11-14T01:21:43;100000.31;;;6.53;79.80
40155;BME280;25875;48.202;16.334;2022-11-14T01:24:10;99988.88;;;6.54;79.90
40155;BME280;25875;48.202;16.334;2022-11-14T01:26:36;99994.16;;;6.54;79.91
40155;BME280;25875;48.202;16.334;2022-11-14T01:29:04;99981.91;;;6.53;79.95
40155;BME280;25875;48.202;16.334;2022-11-14T01:31:32;99812.88;;;5.51;79.98
40155;BME280;25875;48.202;16.334;2022-11-14T01:33:59;99980.13;;;6.54;80.11
40155;BME280;25875;48.202;16.334;2022-11-14T01:36:26;99973.94;;;6.55;80.20
40155;BME280;25875;48.202;16.334;2022-11-14T01:38:53;99875.84;;;5.88;80.28
40155;BME280;25875;48.202;16.334;2022-11-14T01:41:20;99977.41;;;6.57;80.30
40155;BME280;25875;48.202;16.334;2022-11-14T01:43:47;99976.50;;;6.58;80.40
40155;BME280;25875;48.202;16.334;2022-11-14T01:46:18;99982.63;;;6.58;80.27
40155;BME280;25875;48.202;16.334;2022-11-14T01:48:50;99986.16;;;6.57;80.69
40155;BME280;25875;48.202;16.334;2022-11-14T01:51:22;99974.78;;;6.57;80.55
40155;BME280;25875;48.202;16.334;2022-11-14T01:53:52;99977.31;;;6.60;80.67
40155;BME280;25875;48.202;16.334;2022-11-14T01:56:24;99934.44;;;6.25;80.50
40155;BME280;25875;48.202;16.334;2022-11-14T01:58:56;99974.63;;;6.61;80.60
40155;BME280;25875;48.202;16.334;2022-11-14T02:01:24;99943.47;;;6.46;80.55
40155;BME280;25875;48.202;16.334;2022-11-14T02:03:53;99970.19;;;6.63;80.55
40155;BME280;25875;48.202;16.334;2022-11-14T02:06:23;99964.00;;;6.64;80.50
40155;BME280;25875;48.202;16.334;2022-11-14T02:08:51;99964.81;;;6.66;80.48
40155;BME280;25875;48.202;16.334;2022-11-14T02:11:19;99933.81;;;6.47;80.51
40155;BME280;25875;48.202;16.334;2022-11-14T02:13:46;99959.50;;;6.68;80.43
40155;BME280;25875;48.202;16.334;2022-11-14T02:16:13;99959.50;;;6.68;80.63
40155;BME280;25875;48.202;16.334;2022-11-14T02:18:40;99944.88;;;6.58;80.57
40155;BME280;25875;48.202;16.334;2022-11-14T02:21:08;99960.31;;;6.70;80.52
40155;BME280;25875;48.202;16.334;2022-11-14T02:23:35;99962.09;;;6.69;80.53
40155;BME280;25875;48.202;16.334;2022-11-14T02:26:01;99959.47;;;6.69;80.62
40155;BME280;25875;48.202;16.334;2022-11-14T02:28:28;99894.13;;;6.23;80.44
40155;BME280;25875;48.202;16.334;2022-11-14T02:30:55;99961.16;;;6.72;80.60
40155;BME280;25875;48.202;16.334;2022-11-14T02:33:22;99967.28;;;6.72;80.57
40155;BME280;25875;48.202;16.334;2022-11-14T02:35:48;99962.00;;;6.72;80.65
40155;BME280;25875;48.202;16.334;2022-11-14T02:38:17;99969.06;;;6.72;80.92
40155;BME280;25875;48.202;16.334;2022-11-14T02:40:43;99960.25;;;6.73;80.66
40155;BME280;25875;48.202;16.334;2022-11-14T02:43:10;99957.59;;;6.73;80.64
40155;BME280;25875;48.202;16.334;2022-11-14T02:45:37;99954.09;;;6.72;80.69
40155;BME280;25875;48.202;16.334;2022-11-14T02:48:04;99959.38;;;6.72;80.68
40155;BME280;25875;48.202;16.334;2022-11-14T02:50:31;99948.03;;;6.70;80.76
40155;BME280;25875;48.202;16.334;2022-11-14T02:52:57;99707.63;;;5.23;80.74
40155;BME280;25875;48.202;16.334;2022-11-14T02:55:26;99951.53;;;6.71;80.85
40155;BME280;25875;48.202;16.334;2022-11-14T02:57:52;99942.75;;;6.70;80.92
40155;BME280;25875;48.202;16.334;2022-11-14T03:00:19;99946.34;;;6.68;81.00
40155;BME280;25875;48.202;16.334;2022-11-14T03:02:46;99949.88;;;6.67;80.94
40155;BME280;25875;48.202;16.334;2022-11-14T03:05:13;99947.22;;;6.68;80.89
40155;BME280;25875;48.202;16.334;2022-11-14T03:07:39;99953.34;;;6.69;80.86
40155;BME280;25875;48.202;16.334;2022-11-14T03:10:07;99948.06;;;6.69;80.89
40155;BME280;25875;48.202;16.334;2022-11-14T03:12:35;99950.69;;;6.69;80.88
40155;BME280;25875;48.202;16.334;2022-11-14T03:15:03;99952.44;;;6.70;80.93
40155;BME280;25875;48.202;16.334;2022-11-14T03:17:30;99953.28;;;6.70;80.94
40155;BME280;25875;48.202;16.334;2022-11-14T03:19:57;99958.56;;;6.70;80.99
40155;BME280;25875;48.202;16.334;2022-11-14T03:22:24;99956.84;;;6.69;80.97
40155;BME280;25875;48.202;16.334;2022-11-14T03:24:51;99946.28;;;6.69;80.97
40155;BME280;25875;48.202;16.334;2022-11-14T03:27:18;99948.13;;;6.67;81.10
40155;BME280;25875;48.202;16.334;2022-11-14T03:29:46;99948.13;;;6.67;81.01
40155;BME280;25875;48.202;16.334;2022-11-14T03:32:13;99950.69;;;6.69;80.87
40155;BME280;25875;48.202;16.334;2022-11-14T03:34:40;99948.97;;;6.68;81.01
40155;BME280;25875;48.202;16.334;2022-11-14T03:37:07;99946.44;;;6.65;80.96
40155;BME280;25875;48.202;16.334;2022-11-14T03:39:34;99947.38;;;6.62;81.27
40155;BME280;25875;48.202;16.334;2022-11-14T03:42:01;99943.03;;;6.61;81.34
40155;BME280;25875;48.202;16.334;2022-11-14T03:44:27;99942.13;;;6.62;81.23
40155;BME280;25875;48.202;16.334;2022-11-14T03:46:56;99918.19;;;6.40;81.25
40155;BME280;25875;48.202;16.334;2022-11-14T03:49:22;99943.03;;;6.61;81.36
40155;BME280;25875;48.202;16.334;2022-11-14T03:51:49;99940.41;;;6.61;81.37
40155;BME280;25875;48.202;16.334;2022-11-14T03:54:16;99929.84;;;6.61;81.25
40155;BME280;25875;48.202;16.334;2022-11-14T03:56:42;99935.16;;;6.60;81.46
40155;BME280;25875;48.202;16.334;2022-11-14T03:59:09;99549.00;;;4.34;81.06
40155;BME280;25875;48.202;16.334;2022-11-14T04:01:36;99932.53;;;6.60;81.79
40155;BME280;25875;48.202;16.334;2022-11-14T04:04:04;99930.81;;;6.59;81.41
40155;BME280;25875;48.202;16.334;2022-11-14T04:06:30;99922.91;;;6.59;81.28
40155;BME280;25875;48.202;16.334;2022-11-14T04:08:57;99923.81;;;6.58;81.46
40155;BME280;25875;48.202;16.334;2022-11-14T04:11:25;99923.06;;;6.54;81.56
40155;BME280;25875;48.202;16.334;2022-11-14T04:13:52;99915.16;;;6.54;81.70
40155;BME280;25875;48.202;16.334;2022-11-14T04:16:18;99633.25;;;4.90;81.53
40155;BME280;25875;48.202;16.334;2022-11-14T04:18:45;99917.81;;;6.53;81.70
40155;BME280;25875;48.202;16.334;2022-11-14T04:21:14;99883.28;;;6.34;81.60
40155;BME280;25875;48.202;16.334;2022-11-14T04:23:40;99921.31;;;6.53;81.67
40155;BME280;25875;48.202;16.334;2022-11-14T04:26:07;99922.13;;;6.55;81.56
40155;BME280;25875;48.202;16.334;2022-11-14T04:28:34;99915.09;;;6.56;81.60
40155;BME280;25875;48.202;16.334;2022-11-14T04:31:00;99916.78;;;6.58;81.47
40155;BME280;25875;48.202;16.334;2022-11-14T04:33:27;99865.03;;;6.28;81.52
40155;BME280;25875;48.202;16.334;2022-11-14T04:35:54;99908.19;;;6.52;81.66
40155;BME280;25875;48.202;16.334;2022-11-14T04:38:22;99903.88;;;6.49;81.64
40155;BME280;25875;48.202;16.334;2022-11-14T04:40:49;99905.63;;;6.50;81.63
40155;BME280;25875;48.202;16.334;2022-11-14T04:43:16;99926.63;;;6.52;81.67
40155;BME280;25875;48.202;16.334;2022-11-14T04:45:43;99903.78;;;6.52;81.64
40155;BME280;25875;48.202;16.334;2022-11-14T04:48:10;99905.47;;;6.55;81.55
40155;BME280;25875;48.202;16.334;2022-11-14T04:50:37;99786.44;;;5.86;81.50
40155;BME280;25875;48.202;16.334;2022-11-14T04:53:03;99900.16;;;6.56;81.62
40155;BME280;25875;48.202;16.334;2022-11-14T04:55:32;99904.53;;;6.57;81.59
40155;BME280;25875;48.202;16.334;2022-11-14T04:57:58;99858.53;;;6.39;81.52
40155;BME280;25875;48.202;16.334;2022-11-14T05:00:25;99870.63;;;6.47;81.62
40155;BME280;25875;48.202;16.334;2022-11-14T05:02:52;99893.13;;;6.57;81.53
40155;BME280;25875;48.202;16.334;2022-11-14T05:05:19;99896.56;;;6.59;81.29
40155;BME280;25875;48.202;16.334;2022-11-14T05:07:45;99889.63;;;6.56;81.48
40155;BME280;25875;48.202;16.334;2022-11-14T05:10:12;99890.53;;;6.55;81.58
40155;BME280;25875;48.202;16.334;2022-11-14T05:12:40;99895.00;;;6.53;81.61
40155;BME280;25875;48.202;16.334;2022-11-14T05:15:08;99797.47;;;5.99;81.39
40155;BME280;25875;48.202;16.334;2022-11-14T05:17:35;99894.94;;;6.55;81.57
40155;BME280;25875;48.202;16.334;2022-11-14T05:20:02;99883.63;;;6.51;81.66
40155;BME280;25875;48.202;16.334;2022-11-14T05:22:29;99875.84;;;6.48;81.93
40155;BME280;25875;48.202;16.334;2022-11-14T05:24:55;99877.59;;;6.48;81.98
40155;BME280;25875;48.202;16.334;2022-11-14T05:27:22;99844.78;;;6.30;81.88
40155;BME280;25875;48.202;16.334;2022-11-14T05:29:50;99871.47;;;6.47;81.91
40155;BME280;25875;48.202;16.334;2022-11-14T05:32:17;99867.31;;;6.40;82.04
40155;BME280;25875;48.202;16.334;2022-11-14T05:34:43;99874.09;;;6.47;81.98
40155;BME280;25875;48.202;16.334;2022-11-14T05:37:10;99848.34;;;6.29;81.92
40155;BME280;25875;48.202;16.334;2022-11-14T05:39:37;99887.28;;;6.47;82.01
40155;BME280;25875;48.202;16.334;2022-11-14T05:42:03;99877.69;;;6.45;82.26
40155;BME280;25875;48.202;16.334;2022-11-14T05:44:30;99886.56;;;6.42;82.13
40155;BME280;25875;48.202;16.334;2022-11-14T05:46:58;99886.59;;;6.40;82.30
40155;BME280;25875;48.202;16.334;2022-11-14T05:49:25;99819.19;;;6.05;82.28
40155;BME280;25875;48.202;16.334;2022-11-14T05:51:52;99857.19;;;6.26;82.43
40155;BME280;25875;48.202;16.334;2022-11-14T05:54:18;99827.06;;;6.07;82.46
40155;BME280;25875;48.202;16.334;2022-11-14T05:56:45;99885.69;;;6.41;82.55
40155;BME280;25875;48.202;16.334;2022-11-14T05:59:12;99887.47;;;6.41;82.60
40155;BME280;25875;48.202;16.334;2022-11-14T06:01:38;99884.81;;;6.41;82.59
40155;BME280;25875;48.202;16.334;2022-11-14T06:04:07;99891.00;;;6.40;82.58
40155;BME280;25875;48.202;16.334;2022-11-14T06:06:33;99890.13;;;6.39;82.62
40155;BME280;25875;48.202;16.334;2022-11-14T06:09:00;99894.50;;;6.40;82.73
40155;BME280;25875;48.202;16.334;2022-11-14T06:11:27;99896.25;;;6.40;82.82
40155;BME280;25875;48.202;16.334;2022-11-14T06:13:53;99865.09;;;6.26;82.68
40155;BME280;25875;48.202;16.334;2022-11-14T06:16:20;99896.22;;;6.41;82.86
40155;BME280;25875;48.202;16.334;2022-11-14T06:18:47;99894.50;;;6.40;82.81
40155;BME280;25875;48.202;16.334;2022-11-14T06:21:16;99832.59;;;5.98;82.93
40155;BME280;25875;48.202;16.334;2022-11-14T06:23:44;99899.91;;;6.36;83.20
40155;BME280;25875;48.202;16.334;2022-11-14T06:26:15;99838.56;;;6.03;82.94
40155;BME280;25875;48.202;16.334;2022-11-14T06:28:45;99899.03;;;6.35;82.99
40155;BME280;25875;48.202;16.334;2022-11-14T06:31:14;99874.06;;;6.19;83.07
40155;BME280;25875;48.202;16.334;2022-11-14T06:33:41;99880.84;;;6.28;82.96
40155;BME280;25875;48.202;16.334;2022-11-14T06:36:08;99898.94;;;6.38;83.02
40155;BME280;25875;48.202;16.334;2022-11-14T06:38:38;99867.06;;;6.18;83.00
40155;BME280;25875;48.202;16.334;2022-11-14T06:41:06;99897.16;;;6.39;82.92
40155;BME280;25875;48.202;16.334;2022-11-14T06:43:35;99900.63;;;6.41;82.98
40155;BME280;25875;48.202;16.334;2022-11-14T06:46:03;99910.34;;;6.39;83.15
40155;BME280;25875;48.202;16.334;2022-11-14T06:48:30;99919.09;;;6.39;83.42
40155;BME280;25875;48.202;16.334;2022-11-14T06:50:58;99884.31;;;6.28;83.20
40155;BME280;25875;48.202;16.334;2022-11-14T06:53:26;99899.81;;;6.39;83.11
40155;BME280;25875;48.202;16.334;2022-11-14T06:55:55;99904.22;;;6.38;83.33
40155;BME280;25875;48.202;16.334;2022-11-14T06:58:24;99907.66;;;6.40;83.34
40155;BME280;25875;48.202;16.334;2022-11-14T07:00:51;99911.16;;;6.41;83.27
40155;BME280;25875;48.202;16.334;2022-11-14T07:03:18;99907.66;;;6.40;83.36
40155;BME280;25875;48.202;16.334;2022-11-14T07:05:45;99881.97;;;6.19;83.28
40155;BME280;25875;48.202;16.334;2022-11-14T07:08:11;99920.78;;;6.42;83.37
40155;BME280;25875;48.202;16.334;2022-11-14T07:10:38;99927.78;;;6.43;83.06
40155;BME280;25875;48.202;16.334;2022-11-14T07:13:06;99922.56;;;6.41;83.56
40155;BME280;25875;48.202;16.334;2022-11-14T07:15:35;99898.44;;;6.26;83.38
40155;BME280;25875;48.202;16.334;2022-11-14T07:18:02;99833.03;;;5.83;83.33
40155;BME280;25875;48.202;16.334;2022-11-14T07:20:29;99749.91;;;5.46;83.25
40155;BME280;25875;48.202;16.334;2022-11-14T07:22:56;99911.97;;;6.43;83.53
40155;BME280;25875;48.202;16.334;2022-11-14T07:25:22;99866.13;;;6.21;83.38
40155;BME280;25875;48.202;16.334;2022-11-14T07:27:49;99905.84;;;6.42;83.52
40155;BME280;25875;48.202;16.334;2022-11-14T07:30:17;99904.13;;;6.41;83.65
40155;BME280;25875;48.202;16.334;2022-11-14T07:32:44;99894.44;;;6.42;83.55
40155;BME280;25875;48.202;16.334;2022-11-14T07:35:11;99898.84;;;6.41;83.53
40155;BME280;25875;48.202;16.334;2022-11-14T07:37:38;99898.91;;;6.40;83.48
40155;BME280;25875;48.202;16.334;2022-11-14T07:40:06;99890.09;;;6.41;83.56
40155;BME280;25875;48.202;16.334;2022-11-14T07:42:32;99889.94;;;6.46;83.59
40155;BME280;25875;48.202;16.334;2022-11-14T07:44:59;99895.22;;;6.46;83.57
40155;BME280;25875;48.202;16.334;2022-11-14T07:47:27;99885.81;;;6.37;83.42
40155;BME280;25875;48.202;16.334;2022-11-14T07:49:54;99865.13;;;6.25;83.29
40155;BME280;25875;48.202;16.334;2022-11-14T07:52:21;99890.03;;;6.42;83.69
40155;BME280;25875;48.202;16.334;2022-11-14T07:54:48;99897.03;;;6.43;83.85
40155;BME280;25875;48.202;16.334;2022-11-14T07:57:14;99895.31;;;6.42;83.89
40155;BME280;25875;48.202;16.334;2022-11-14T07:59:41;99893.53;;;6.43;83.93
40155;BME280;25875;48.202;16.334;2022-11-14T08:02:11;99893.44;;;6.46;84.04
40155;BME280;25875;48.202;16.334;2022-11-14T08:04:40;99898.66;;;6.48;84.09
40155;BME280;25875;48.202;16.334;2022-11-14T08:07:06;99895.19;;;6.47;84.06
40155;BME280;25875;48.202;16.334;2022-11-14T08:09:33;99897.00;;;6.45;84.17
40155;BME280;25875;48.202;16.334;2022-11-14T08:12:00;99888.22;;;6.45;83.96
40155;BME280;25875;48.202;16.334;2022-11-14T08:14:27;99883.81;;;6.45;84.06
40155;BME280;25875;48.202;16.334;2022-11-14T08:16:54;99889.19;;;6.42;84.06
40155;BME280;25875;48.202;16.334;2022-11-14T08:19:20;99883.91;;;6.42;84.22
40155;BME280;25875;48.202;16.334;2022-11-14T08:21:48;99621.03;;;4.87;84.31
40155;BME280;25875;48.202;16.334;2022-11-14T08:24:15;99882.19;;;6.41;84.41
40155;BME280;25875;48.202;16.334;2022-11-14T08:26:42;99852.00;;;6.23;84.49
40155;BME280;25875;48.202;16.334;2022-11-14T08:29:09;99884.88;;;6.39;84.46
40155;BME280;25875;48.202;16.334;2022-11-14T08:31:35;99889.19;;;6.42;84.42
40155;BME280;25875;48.202;16.334;2022-11-14T08:34:02;99881.34;;;6.40;84.56
40155;BME280;25875;48.202;16.334;2022-11-14T08:36:29;99876.06;;;6.40;84.57
40155;BME280;25875;48.202;16.334;2022-11-14T08:38:57;99300.63;;;3.09;84.17
40155;BME280;25875;48.202;16.334;2022-11-14T08:41:23;99869.78;;;6.45;84.75
40155;BME280;25875;48.202;16.334;2022-11-14T08:43:50;99853.94;;;6.46;84.54
40155;BME280;25875;48.202;16.334;2022-11-14T08:46:17;99855.69;;;6.47;84.66
40155;BME280;25875;48.202;16.334;2022-11-14T08:48:44;99860.94;;;6.47;84.59
40155;BME280;25875;48.202;16.334;2022-11-14T08:51:10;99834.25;;;6.30;84.64
40155;BME280;25875;48.202;16.334;2022-11-14T08:53:37;99851.38;;;6.45;84.57
40155;BME280;25875;48.202;16.334;2022-11-14T08:56:06;99856.59;;;6.46;84.74
40155;BME280;25875;48.202;16.334;2022-11-14T08:58:35;99857.41;;;6.48;84.73
40155;BME280;25875;48.202;16.334;2022-11-14T09:01:03;99860.84;;;6.50;84.67
40155;BME280;25875;48.202;16.334;2022-11-14T09:03:31;99850.22;;;6.53;84.62
40155;BME280;25875;48.202;16.334;2022-11-14T09:05:58;99845.78;;;6.55;84.53
40155;BME280;25875;48.202;16.334;2022-11-14T09:08:25;99775.09;;;6.14;84.61
40155;BME280;25875;48.202;16.334;2022-11-14T09:10:51;99791.28;;;6.29;84.49
40155;BME280;25875;48.202;16.334;2022-11-14T09:13:20;99848.69;;;6.74;84.53
40155;BME280;25875;48.202;16.334;2022-11-14T09:15:46;99846.56;;;6.87;84.50
40155;BME280;25875;48.202;16.334;2022-11-14T09:18:14;99843.53;;;6.99;83.93
40155;BME280;25875;48.202;16.334;2022-11-14T09:20:41;99847.31;;;7.17;83.67
40155;BME280;25875;48.202;16.334;2022-11-14T09:23:08;99842.31;;;7.35;82.99
40155;BME280;25875;48.202;16.334;2022-11-14T09:25:35;99786.28;;;7.29;82.47
40155;BME280;25875;48.202;16.334;2022-11-14T09:28:04;99827.72;;;7.75;82.01
40155;BME280;25875;48.202;16.334;2022-11-14T09:30:33;99822.81;;;7.89;81.41
40155;BME280;25875;48.202;16.334;2022-11-14T09:33:00;99717.41;;;7.38;80.78
40155;BME280;25875;48.202;16.334;2022-11-14T09:35:28;99746.16;;;7.92;80.42
40155;BME280;25875;48.202;16.334;2022-11-14T09:37:59;99799.59;;;8.44;80.06
40155;BME280;25875;48.202;16.334;2022-11-14T09:40:26;99667.06;;;7.91;79.20
40155;BME280;25875;48.202;16.334;2022-11-14T09:43:02;99788.47;;;8.80;79.14
40155;BME280;25875;48.202;16.334;2022-11-14T09:45:33;99792.25;;;8.94;78.36
40155;BME280;25875;48.202;16.334;2022-11-14T09:48:06;99739.50;;;8.91;77.76
40155;BME280;25875;48.202;16.334;2022-11-14T09:50:39;99700.78;;;8.70;77.54
40155;BME280;25875;48.202;16.334;2022-11-14T09:53:12;99609.00;;;8.33;76.77
40155;BME280;25875;48.202;16.334;2022-11-14T09:55:41;99760.34;;;9.41;76.52
40155;BME280;25875;48.202;16.334;2022-11-14T09:58:12;99755.56;;;9.49;75.81
40155;BME280;25875;48.202;16.334;2022-11-14T10:00:49;99720.53;;;9.44;75.95
40155;BME280;25875;48.202;16.334;2022-11-14T10:03:22;99735.81;;;9.77;75.46
40155;BME280;25875;48.202;16.334;2022-11-14T10:06:19;99732.03;;;9.82;73.83
40155;BME280;25875;48.202;16.334;2022-11-14T10:09:05;99737.03;;;9.88;73.37
40155;BME280;25875;48.202;16.334;2022-11-14T10:11:38;99727.00;;;9.95;74.55
40155;BME280;25875;48.202;16.334;2022-11-14T10:14:23;99582.44;;;8.97;73.09
40155;BME280;25875;48.202;16.334;2022-11-14T10:17:02;99727.66;;;10.00;74.15
40155;BME280;25875;48.202;16.334;2022-11-14T10:19:36;99734.03;;;10.15;73.58
40155;BME280;25875;48.202;16.334;2022-11-14T10:22:19;99724.22;;;10.17;72.31
40155;BME280;25875;48.202;16.334;2022-11-14T10:27:53;99711.88;;;10.35;72.93
40155;BME280;25875;48.202;16.334;2022-11-14T10:30:26;99706.91;;;10.46;72.87
40155;BME280;25875;48.202;16.334;2022-11-14T10:33:19;99697.56;;;10.56;71.39
40155;BME280;25875;48.202;16.334;2022-11-14T10:35:54;99677.84;;;10.44;72.12
40155;BME280;25875;48.202;16.334;2022-11-14T10:38:27;99660.47;;;10.56;72.01
40155;BME280;25875;48.202;16.334;2022-11-14T10:40:58;99676.88;;;10.81;72.19
40155;BME280;25875;48.202;16.334;2022-11-14T10:43:30;99631.63;;;10.50;71.59
40155;BME280;25875;48.202;16.334;2022-11-14T10:46:02;99678.44;;;10.85;71.42
40155;BME280;25875;48.202;16.334;2022-11-14T10:48:34;99676.09;;;10.97;71.19
40155;BME280;25875;48.202;16.334;2022-11-14T10:51:05;99666.97;;;11.02;71.04
40155;BME280;25875;48.202;16.334;2022-11-14T10:53:44;99663.75;;;11.13;70.51
40155;BME280;25875;48.202;16.334;2022-11-14T10:56:14;99659.25;;;11.31;71.07
40155;BME280;25875;48.202;16.334;2022-11-14T10:58:40;99661.00;;;11.47;70.62
40155;BME280;25875;48.202;16.334;2022-11-14T11:01:33;99669.59;;;11.52;68.50
40155;BME280;25875;48.202;16.334;2022-11-14T11:04:16;99659.66;;;11.56;68.57
40155;BME280;25875;48.202;16.334;2022-11-14T11:06:44;99648.88;;;11.59;69.73
40155;BME280;25875;48.202;16.334;2022-11-14T11:09:13;99632.25;;;11.55;68.77
40155;BME280;25875;48.202;16.334;2022-11-14T11:11:59;99655.81;;;11.77;69.10
40155;BME280;25875;48.202;16.334;2022-11-14T11:14:28;99644.88;;;11.83;69.31
40155;BME280;25875;48.202;16.334;2022-11-14T11:17:22;99643.56;;;11.91;66.35
40155;BME280;25875;48.202;16.334;2022-11-14T11:19:50;99643.22;;;11.97;68.48
40155;BME280;25875;48.202;16.334;2022-11-14T11:22:34;99649.69;;;12.08;66.10
40155;BME280;25875;48.202;16.334;2022-11-14T11:25:12;99643.25;;;12.12;68.00
40155;BME280;25875;48.202;16.334;2022-11-14T11:28:02;99639.66;;;12.13;66.01
40155;BME280;25875;48.202;16.334;2022-11-14T11:30:29;99635.28;;;12.12;68.10
40155;BME280;25875;48.202;16.334;2022-11-14T11:33:20;99642.75;;;12.06;64.05
40155;BME280;25875;48.202;16.334;2022-11-14T11:35:53;99561.00;;;11.48;66.34
40155;BME280;25875;48.202;16.334;2022-11-14T11:38:24;99644.59;;;11.88;67.00
40155;BME280;25875;48.202;16.334;2022-11-14T11:40:59;99638.00;;;11.79;66.09
40155;BME280;25875;48.202;16.334;2022-11-14T11:43:33;99635.00;;;11.70;66.69
40155;BME280;25875;48.202;16.334;2022-11-14T11:46:04;99559.88;;;11.20;67.57
40155;BME280;25875;48.202;16.334;2022-11-14T11:48:36;99631.91;;;11.62;67.41
40155;BME280;25875;48.202;16.334;2022-11-14T11:51:06;99628.56;;;11.58;67.47
40155;BME280;25875;48.202;16.334;2022-11-14T11:53:40;99443.72;;;10.45;67.68
40155;BME280;25875;48.202;16.334;2022-11-14T11:56:10;99634.81;;;11.57;67.78
40155;BME280;25875;48.202;16.334;2022-11-14T11:58:42;99630.13;;;11.62;66.96
40155;BME280;25875;48.202;16.334;2022-11-14T12:01:10;99630.56;;;11.70;67.45
40155;BME280;25875;48.202;16.334;2022-11-14T12:03:38;99631.75;;;11.65;67.40
40155;BME280;25875;48.202;16.334;2022-11-14T12:06:13;99627.47;;;11.62;65.78
40155;BME280;25875;48.202;16.334;2022-11-14T12:08:50;99617.38;;;11.69;66.08
40155;BME280;25875;48.202;16.334;2022-11-14T12:11:22;99581.06;;;11.53;66.86
40155;BME280;25875;48.202;16.334;2022-11-14T12:20:03;99614.63;;;11.70;65.60
40155;BME280;25875;48.202;16.334;2022-11-14T12:22:56;99610.34;;;11.68;65.04
40155;BME280;25875;48.202;16.334;2022-11-14T12:25:36;99608.19;;;11.74;65.67
40155;BME280;25875;48.202;16.334;2022-11-14T12:28:19;99488.31;;;11.03;65.03
40155;BME280;25875;48.202;16.334;2022-11-14T12:30:54;99606.75;;;11.84;66.35
40155;BME280;25875;48.202;16.334;2022-11-14T12:33:25;99529.00;;;11.35;66.62
40155;BME280;25875;48.202;16.334;2022-11-14T12:35:56;99529.34;;;11.29;66.29
40155;BME280;25875;48.202;16.334;2022-11-14T12:38:31;99613.94;;;11.82;65.78
40155;BME280;25875;48.202;16.334;2022-11-14T12:41:01;99606.75;;;11.84;66.95
40155;BME280;25875;48.202;16.334;2022-11-14T12:43:32;99611.19;;;11.68;66.45
40155;BME280;25875;48.202;16.334;2022-11-14T12:46:01;99614.28;;;11.61;67.05
40155;BME280;25875;48.202;16.334;2022-11-14T12:48:30;99612.56;;;11.60;67.49
40155;BME280;25875;48.202;16.334;2022-11-14T12:50:58;99614.38;;;11.59;67.48
40155;BME280;25875;48.202;16.334;2022-11-14T12:53:43;99608.28;;;11.57;65.75
40155;BME280;25875;48.202;16.334;2022-11-14T12:56:46;99612.72;;;11.56;65.66
40155;BME280;25875;48.202;16.334;2022-11-14T12:59:27;99608.63;;;11.51;66.27
40155;BME280;25875;48.202;16.334;2022-11-14T13:02:16;99600.13;;;11.44;65.45
40155;BME280;25875;48.202;16.334;2022-11-14T13:07:49;99586.34;;;11.38;66.98
40155;BME280;25875;48.202;16.334;2022-11-14T13:10:27;99599.38;;;11.58;66.60
40155;BME280;25875;48.202;16.334;2022-11-14T13:12:56;99593.72;;;11.64;67.25
40155;BME280;25875;48.202;16.334;2022-11-14T13:15:50;99594.66;;;11.63;66.02
40155;BME280;25875;48.202;16.334;2022-11-14T13:18:35;99596.81;;;11.56;67.45
40155;BME280;25875;48.202;16.334;2022-11-14T13:21:29;99604.50;;;11.45;67.61